createdAt,value
2022-10-26T00:00:01.187Z,10.4
2022-10-26T00:01:01.762Z,10.3
2022-10-26T00:02:01.492Z,10.3
2022-10-26T00:03:01.951Z,10.4
2022-10-26T00:04:01.528Z,10.4
2022-10-26T00:05:01.121Z,10.3
2022-10-26T00:06:01.685Z,10.4
2022-10-26T00:07:01.283Z,10.4
2022-10-26T00:08:01.837Z,10.5
2022-10-26T00:09:01.414Z,10.4
2022-10-26T00:10:01.988Z,10.5
2022-10-26T00:11:01.560Z,10.5
2022-10-26T00:12:01.158Z,10.5
2022-10-26T00:13:01.718Z,10.4
2022-10-26T00:14:01.295Z,10.4
2022-10-26T00:15:01.868Z,10.4
2022-10-26T00:16:01.488Z,10.3
2022-10-26T00:17:01.037Z,10.3
2022-10-26T00:18:01.619Z,10.3
2022-10-26T00:19:01.209Z,10.2
2022-10-26T00:20:01.777Z,10.2
2022-10-26T00:21:01.379Z,10.3
2022-10-26T00:22:01.923Z,10.3
2022-10-26T00:23:01.498Z,10.3
2022-10-26T00:24:01.089Z,10.2
2022-10-26T00:25:01.646Z,10.3
2022-10-26T00:26:01.221Z,10.2
2022-10-26T00:27:01.796Z,10.3
2022-10-26T00:28:01.379Z,10.2
2022-10-26T00:29:01.975Z,10.2
2022-10-26T00:30:01.548Z,10.2
2022-10-26T00:31:01.122Z,10.2
2022-10-26T00:32:01.694Z,10.2
2022-10-26T00:33:01.270Z,10.3
2022-10-26T00:34:01.859Z,10.2
2022-10-26T00:35:05.972Z,10.2
2022-10-26T00:36:01.967Z,10.2
2022-10-26T00:37:01.565Z,10.2
2022-10-26T00:38:01.140Z,10.2
2022-10-26T00:39:01.735Z,10.2
2022-10-26T00:40:01.311Z,10.2
2022-10-26T00:41:01.892Z,10.1
2022-10-26T00:42:01.472Z,10.1
2022-10-26T00:43:01.056Z,10.1
2022-10-26T00:44:01.651Z,10.1
2022-10-26T00:45:01.233Z,10.1
2022-10-26T00:46:01.808Z,10
2022-10-26T00:47:01.379Z,10.1
2022-10-26T00:48:01.955Z,10.1
2022-10-26T00:49:01.555Z,10.1
2022-10-26T00:50:01.148Z,10.1
2022-10-26T00:51:01.705Z,10.2
2022-10-26T00:52:01.280Z,10.2
2022-10-26T00:53:01.884Z,10.1
2022-10-26T00:54:01.479Z,10.1
2022-10-26T00:55:01.032Z,10.1
2022-10-26T00:56:01.604Z,10.1
2022-10-26T00:57:01.179Z,10.1
2022-10-26T00:58:01.754Z,10.2
2022-10-26T00:59:01.349Z,10.1
2022-10-26T01:00:01.939Z,10.1
2022-10-26T01:01:01.519Z,10.1
2022-10-26T01:02:01.097Z,10.2
2022-10-26T01:03:01.712Z,10.2
2022-10-26T01:04:01.385Z,10.1
2022-10-26T01:05:01.891Z,10.2
2022-10-26T01:06:01.470Z,10.1
2022-10-26T01:07:01.040Z,10.1
2022-10-26T01:08:01.613Z,10.1
2022-10-26T01:09:01.218Z,10.1
2022-10-26T01:10:01.785Z,10
2022-10-26T01:11:01.360Z,10
2022-10-26T01:12:01.939Z,10
2022-10-26T01:13:01.589Z,10.1
2022-10-26T01:14:01.162Z,10.1
2022-10-26T01:15:01.755Z,10.1
2022-10-26T01:16:01.346Z,10.1
2022-10-26T01:18:01.488Z,10.2
2022-10-26T01:19:01.062Z,10.2
2022-10-26T01:20:01.651Z,10.1
2022-10-26T01:21:01.224Z,10.2
2022-10-26T01:22:01.798Z,10.3
2022-10-26T01:23:01.371Z,10.4
2022-10-26T01:24:01.943Z,10.4
2022-10-26T01:25:01.566Z,10.4
2022-10-26T01:26:01.154Z,10.3
2022-10-26T01:27:01.714Z,10.4
2022-10-26T01:28:01.293Z,10.3
2022-10-26T01:29:01.866Z,10.4
2022-10-26T01:30:01.460Z,10.3
2022-10-26T01:31:01.024Z,10.3
2022-10-26T01:32:01.615Z,10.3
2022-10-26T01:33:01.192Z,10.3
2022-10-26T01:34:01.768Z,10.4
2022-10-26T01:35:01.361Z,10.4
2022-10-26T01:36:01.925Z,10.4
2022-10-26T01:37:01.515Z,10.5
2022-10-26T01:38:01.089Z,10.6
2022-10-26T01:39:01.660Z,10.7
2022-10-26T01:40:01.233Z,10.7
2022-10-26T01:41:01.830Z,10.7
2022-10-26T01:42:01.427Z,10.8
2022-10-26T01:43:01.990Z,10.7
2022-10-26T01:44:01.567Z,10.6
2022-10-26T01:45:01.137Z,10.5
2022-10-26T01:46:01.709Z,10.5
2022-10-26T01:47:01.299Z,10.3
2022-10-26T01:48:01.884Z,10.3
2022-10-26T01:49:01.458Z,10.4
2022-10-26T01:50:01.031Z,10.3
2022-10-26T01:51:01.606Z,10.3
2022-10-26T01:52:01.198Z,10.3
2022-10-26T01:53:01.757Z,10.3
2022-10-26T01:54:01.331Z,10.4
2022-10-26T01:55:01.905Z,10.4
2022-10-26T01:56:01.477Z,10.5
2022-10-26T01:57:01.088Z,10.5
2022-10-26T01:58:01.636Z,10.4
2022-10-26T01:59:01.211Z,10.5
2022-10-26T02:00:01.786Z,10.6
2022-10-26T02:01:01.361Z,10.4
2022-10-26T02:02:01.948Z,10.5
2022-10-26T02:03:01.532Z,10.6
2022-10-26T02:04:01.194Z,10.6
2022-10-26T02:05:01.703Z,10.6
2022-10-26T02:06:01.275Z,10.7
2022-10-26T02:07:01.848Z,10.7
2022-10-26T02:08:01.438Z,10.7
2022-10-26T02:09:02.006Z,10.7
2022-10-26T02:10:01.583Z,10.7
2022-10-26T02:11:01.154Z,10.7
2022-10-26T02:12:01.730Z,10.8
2022-10-26T02:13:01.344Z,10.8
2022-10-26T02:14:01.930Z,10.8
2022-10-26T02:15:01.530Z,10.8
2022-10-26T02:16:01.117Z,10.8
2022-10-26T02:17:01.684Z,10.9
2022-10-26T02:18:01.274Z,10.9
2022-10-26T02:19:01.845Z,10.9
2022-10-26T02:20:01.430Z,10.9
2022-10-26T02:21:01.991Z,10.8
2022-10-26T02:22:01.563Z,10.9
2022-10-26T02:23:01.152Z,10.9
2022-10-26T02:24:01.783Z,10.9
2022-10-26T02:25:01.372Z,10.8
2022-10-26T02:26:01.958Z,10.9
2022-10-26T02:27:01.550Z,10.9
2022-10-26T02:28:01.126Z,10.9
2022-10-26T02:29:01.725Z,10.9
2022-10-26T02:30:01.304Z,10.9
2022-10-26T02:31:01.897Z,10.9
2022-10-26T02:32:01.468Z,11
2022-10-26T02:33:01.042Z,11
2022-10-26T02:34:01.617Z,11
2022-10-26T02:35:01.207Z,10.9
2022-10-26T02:36:01.793Z,10.9
2022-10-26T02:37:01.369Z,11
2022-10-26T02:38:01.942Z,10.9
2022-10-26T02:39:01.520Z,10.9
2022-10-26T02:40:01.093Z,11
2022-10-26T02:41:01.696Z,10.9
2022-10-26T02:42:01.271Z,11
2022-10-26T02:43:01.847Z,11.1
2022-10-26T02:44:01.422Z,11.1
2022-10-26T02:45:02.036Z,11.1
2022-10-26T02:46:01.627Z,11.1
2022-10-26T02:47:01.239Z,11.2
2022-10-26T02:48:01.782Z,11.1
2022-10-26T02:49:01.356Z,11.1
2022-10-26T02:50:01.940Z,11.1
2022-10-26T02:51:01.516Z,11
2022-10-26T02:52:01.132Z,11
2022-10-26T02:53:01.672Z,11.1
2022-10-26T02:54:01.248Z,11.1
2022-10-26T02:55:01.820Z,11.1
2022-10-26T02:56:01.392Z,11.1
2022-10-26T02:57:01.986Z,11.1
2022-10-26T02:58:01.559Z,11.1
2022-10-26T02:59:01.134Z,11
2022-10-26T03:00:01.800Z,11.1
2022-10-26T03:01:01.378Z,11.1
2022-10-26T03:02:01.951Z,11.2
2022-10-26T03:03:01.524Z,11.1
2022-10-26T03:04:01.233Z,11.2
2022-10-26T03:05:01.675Z,11.2
2022-10-26T03:06:01.251Z,11.1
2022-10-26T03:07:01.841Z,11.1
2022-10-26T03:08:01.413Z,11.2
2022-10-26T03:09:01.984Z,11.2
2022-10-26T03:10:01.567Z,11.1
2022-10-26T03:11:01.139Z,11.1
2022-10-26T03:12:01.734Z,11
2022-10-26T03:13:01.325Z,11
2022-10-26T03:14:01.885Z,11
2022-10-26T03:15:01.462Z,11
2022-10-26T03:16:01.037Z,10.9
2022-10-26T03:17:01.651Z,11
2022-10-26T03:18:01.245Z,11
2022-10-26T03:19:01.799Z,11.1
2022-10-26T03:20:01.373Z,11.1
2022-10-26T03:21:01.956Z,11.1
2022-10-26T03:22:01.536Z,11.1
2022-10-26T03:23:01.130Z,11.2
2022-10-26T03:24:01.697Z,11.2
2022-10-26T03:25:01.297Z,11.1
2022-10-26T03:26:01.848Z,11.1
2022-10-26T03:27:02.182Z,11.1
2022-10-26T03:28:01.163Z,11.1
2022-10-26T03:29:01.574Z,11.1
2022-10-26T03:30:01.164Z,11.1
2022-10-26T03:31:01.747Z,11.1
2022-10-26T03:32:01.323Z,11
2022-10-26T03:33:01.937Z,11.1
2022-10-26T03:34:01.510Z,11
2022-10-26T03:35:01.084Z,11
2022-10-26T03:36:01.674Z,11
2022-10-26T03:37:01.247Z,11.1
2022-10-26T03:38:01.836Z,11.1
2022-10-26T03:39:01.408Z,11.1
2022-10-26T03:40:01.981Z,11.1
2022-10-26T03:41:01.573Z,11.2
2022-10-26T03:42:01.147Z,11.1
2022-10-26T03:43:01.737Z,11.2
2022-10-26T03:44:01.311Z,11.2
2022-10-26T03:45:01.887Z,11.2
2022-10-26T03:46:01.477Z,11.2
2022-10-26T03:47:01.034Z,11.3
2022-10-26T03:48:01.627Z,11.3
2022-10-26T03:49:01.229Z,11.2
2022-10-26T03:50:01.866Z,11.3
2022-10-26T03:51:01.448Z,11.3
2022-10-26T03:52:02.009Z,11.2
2022-10-26T03:53:01.582Z,11.3
2022-10-26T03:54:01.161Z,11.2
2022-10-26T03:55:01.738Z,11.2
2022-10-26T03:56:01.329Z,11.1
2022-10-26T03:57:01.898Z,11.2
2022-10-26T03:58:01.489Z,11.2
2022-10-26T03:59:01.043Z,11.2
2022-10-26T04:00:01.617Z,11.2
2022-10-26T04:01:01.220Z,11.3
2022-10-26T04:02:01.802Z,11.3
2022-10-26T04:03:01.390Z,11.3
2022-10-26T04:04:01.992Z,11.3
2022-10-26T04:05:01.641Z,11.4
2022-10-26T04:06:01.207Z,11.4
2022-10-26T04:07:01.788Z,11.4
2022-10-26T04:08:01.383Z,11.3
2022-10-26T04:09:01.955Z,11.3
2022-10-26T04:10:01.549Z,11.2
2022-10-26T04:11:02.450Z,11.3
2022-10-26T04:12:01.661Z,11.2
2022-10-26T04:13:01.276Z,11.2
2022-10-26T04:14:01.803Z,11.2
2022-10-26T04:16:01.955Z,11.1
2022-10-26T04:17:01.533Z,11.1
2022-10-26T04:18:01.113Z,11.1
2022-10-26T04:19:01.706Z,11
2022-10-26T04:20:01.283Z,11
2022-10-26T04:21:01.887Z,11
2022-10-26T04:22:01.465Z,11
2022-10-26T04:23:01.038Z,11
2022-10-26T04:24:01.632Z,11
2022-10-26T04:25:01.208Z,11
2022-10-26T04:26:01.800Z,11.1
2022-10-26T04:27:01.374Z,11
2022-10-26T04:28:01.954Z,11.1
2022-10-26T04:29:01.529Z,11.1
2022-10-26T04:30:01.122Z,11
2022-10-26T04:31:01.698Z,11
2022-10-26T04:32:01.273Z,11
2022-10-26T04:33:01.869Z,11
2022-10-26T04:34:01.473Z,11
2022-10-26T04:35:01.044Z,10.9
2022-10-26T04:36:01.638Z,10.9
2022-10-26T04:37:01.241Z,10.9
2022-10-26T04:38:01.798Z,11
2022-10-26T04:39:01.376Z,11
2022-10-26T04:40:02.000Z,11
2022-10-26T04:41:01.622Z,11
2022-10-26T04:42:01.180Z,11
2022-10-26T04:43:01.751Z,11
2022-10-26T04:44:01.325Z,11
2022-10-26T04:45:01.900Z,11
2022-10-26T04:46:01.495Z,11
2022-10-26T04:47:01.063Z,11
2022-10-26T04:48:01.636Z,11
2022-10-26T04:49:01.209Z,11.1
2022-10-26T04:50:01.780Z,11.1
2022-10-26T04:51:01.373Z,11.1
2022-10-26T04:52:02.133Z,11.1
2022-10-26T04:53:01.756Z,11.1
2022-10-26T04:54:01.186Z,11
2022-10-26T04:55:01.761Z,11
2022-10-26T04:56:01.336Z,11
2022-10-26T04:57:01.967Z,11
2022-10-26T04:58:01.928Z,11.1
2022-10-26T04:59:01.817Z,11
2022-10-26T05:00:01.390Z,10.9
2022-10-26T05:01:02.023Z,10.9
2022-10-26T05:02:01.714Z,10.9
2022-10-26T05:03:01.208Z,10.9
2022-10-26T05:04:01.782Z,10.8
2022-10-26T05:05:01.360Z,10.8
2022-10-26T05:06:01.976Z,10.8
2022-10-26T05:07:01.569Z,10.8
2022-10-26T05:08:01.139Z,10.8
2022-10-26T05:09:01.740Z,10.8
2022-10-26T05:10:01.315Z,10.8
2022-10-26T05:11:01.888Z,10.7
2022-10-26T05:12:01.480Z,10.6
2022-10-26T05:13:01.046Z,10.5
2022-10-26T05:14:01.624Z,10.5
2022-10-26T05:15:02.833Z,10.6
2022-10-26T05:16:01.732Z,10.6
2022-10-26T05:17:01.325Z,10.7
2022-10-26T05:18:01.890Z,10.7
2022-10-26T05:19:01.487Z,10.8
2022-10-26T05:20:01.058Z,10.8
2022-10-26T05:21:01.633Z,11
2022-10-26T05:22:01.230Z,11.3
2022-10-26T05:23:01.799Z,11.5
2022-10-26T05:24:01.375Z,11.9
2022-10-26T05:25:01.990Z,12.1
2022-10-26T05:26:01.562Z,12.4
2022-10-26T05:27:01.134Z,12.5
2022-10-26T05:28:01.729Z,12.7
2022-10-26T05:29:01.328Z,12.9
2022-10-26T05:30:01.927Z,13
2022-10-26T05:31:01.547Z,13.1
2022-10-26T05:32:01.124Z,13.2
2022-10-26T05:33:01.698Z,13.3
2022-10-26T05:34:01.295Z,13.3
2022-10-26T05:35:01.857Z,13.4
2022-10-26T05:36:01.429Z,13.4
2022-10-26T05:37:02.004Z,13.4
2022-10-26T05:38:01.577Z,13.4
2022-10-26T05:39:01.169Z,13.4
2022-10-26T05:40:01.739Z,13.5
2022-10-26T05:41:01.338Z,13.5
2022-10-26T05:42:01.899Z,13.5
2022-10-26T05:43:01.477Z,13.6
2022-10-26T05:44:01.064Z,13.7
2022-10-26T05:45:01.632Z,13.7
2022-10-26T05:46:01.205Z,13.7
2022-10-26T05:47:01.779Z,13.6
2022-10-26T05:48:02.493Z,13.7
2022-10-26T05:49:01.775Z,13.6
2022-10-26T05:50:01.365Z,13.6
2022-10-26T05:51:01.953Z,13.6
2022-10-26T05:52:01.547Z,13.7
2022-10-26T05:53:01.122Z,13.8
2022-10-26T05:54:01.712Z,13.8
2022-10-26T05:55:01.310Z,13.8
2022-10-26T05:56:03.244Z,13.9
2022-10-26T05:57:01.422Z,13.9
2022-10-26T05:58:01.997Z,13.9
2022-10-26T05:59:01.588Z,13.9
2022-10-26T06:00:01.162Z,14
2022-10-26T06:01:01.751Z,14
2022-10-26T06:02:01.422Z,14
2022-10-26T06:03:01.907Z,14.1
2022-10-26T06:04:01.480Z,14.1
2022-10-26T06:05:01.054Z,14
2022-10-26T06:06:02.816Z,14
2022-10-26T06:07:01.389Z,14.1
2022-10-26T06:08:01.870Z,14.1
2022-10-26T06:09:01.443Z,14.1
2022-10-26T06:10:02.016Z,14
2022-10-26T06:11:01.607Z,14
2022-10-26T06:12:01.197Z,14
2022-10-26T06:13:01.800Z,14
2022-10-26T06:14:01.373Z,14.1
2022-10-26T06:15:01.949Z,14.2
2022-10-26T06:16:01.541Z,14.2
2022-10-26T06:17:01.135Z,14.2
2022-10-26T06:18:01.701Z,14.1
2022-10-26T06:19:01.986Z,14.1
2022-10-26T06:20:01.911Z,14.1
2022-10-26T06:21:01.547Z,14.1
2022-10-26T06:22:01.107Z,14.2
2022-10-26T06:23:01.683Z,14.2
2022-10-26T06:24:01.257Z,14.2
2022-10-26T06:25:01.831Z,14.3
2022-10-26T06:26:01.423Z,14.2
2022-10-26T06:27:01.993Z,14.2
2022-10-26T06:28:01.587Z,14.2
2022-10-26T06:29:01.199Z,14.2
2022-10-26T06:30:01.730Z,14.2
2022-10-26T06:31:01.302Z,14.2
2022-10-26T06:32:01.897Z,14.2
2022-10-26T06:33:06.103Z,14.2
2022-10-26T06:34:02.009Z,14.2
2022-10-26T06:35:03.727Z,14.2
2022-10-26T06:36:01.155Z,14.2
2022-10-26T06:37:01.745Z,14.2
2022-10-26T06:38:01.320Z,14.3
2022-10-26T06:39:01.895Z,14.3
2022-10-26T06:40:01.485Z,14.3
2022-10-26T06:41:01.040Z,14.4
2022-10-26T06:42:01.609Z,14.4
2022-10-26T06:43:01.268Z,14.4
2022-10-26T06:44:01.844Z,14.4
2022-10-26T06:45:01.518Z,14.4
2022-10-26T06:46:02.000Z,14.4
2022-10-26T06:47:01.573Z,14.4
2022-10-26T06:48:01.148Z,14.4
2022-10-26T06:49:01.730Z,14.4
2022-10-26T06:50:01.329Z,14.4
2022-10-26T06:51:01.893Z,14.4
2022-10-26T06:52:01.467Z,14.4
2022-10-26T06:53:01.038Z,14.4
2022-10-26T06:54:01.613Z,14.4
2022-10-26T06:55:01.208Z,14.4
2022-10-26T06:56:01.771Z,14.5
2022-10-26T06:57:01.343Z,14.5
2022-10-26T06:58:01.921Z,14.5
2022-10-26T06:59:03.353Z,14.5
2022-10-26T07:00:01.050Z,14.4
2022-10-26T07:01:01.662Z,14.5
2022-10-26T07:02:02.815Z,14.5
2022-10-26T07:03:01.852Z,14.5
2022-10-26T07:04:01.484Z,14.5
2022-10-26T07:05:01.070Z,14.5
2022-10-26T07:06:01.643Z,14.6
2022-10-26T07:07:01.241Z,14.7
2022-10-26T07:08:01.801Z,14.7
2022-10-26T07:09:01.392Z,14.7
2022-10-26T07:10:01.961Z,14.7
2022-10-26T07:11:01.625Z,14.8
2022-10-26T07:12:01.188Z,14.8
2022-10-26T07:13:01.776Z,14.8
2022-10-26T07:14:01.372Z,14.8
2022-10-26T07:15:01.949Z,14.8
2022-10-26T07:16:01.578Z,14.9
2022-10-26T07:17:01.177Z,14.9
2022-10-26T07:18:01.724Z,14.9
2022-10-26T07:19:01.310Z,15
2022-10-26T07:20:01.880Z,15
2022-10-26T07:21:01.452Z,15
2022-10-26T07:22:01.029Z,15.1
2022-10-26T07:23:01.603Z,15.1
2022-10-26T07:24:01.193Z,15.1
2022-10-26T07:25:02.845Z,15.2
2022-10-26T07:26:01.968Z,15.1
2022-10-26T07:27:01.544Z,15.2
2022-10-26T07:28:01.123Z,15.3
2022-10-26T07:29:01.704Z,15.3
2022-10-26T07:30:01.816Z,15.3
2022-10-26T07:31:01.419Z,15.4
2022-10-26T07:32:01.990Z,15.4
2022-10-26T07:33:01.602Z,15.4
2022-10-26T07:34:01.204Z,15.4
2022-10-26T07:35:01.797Z,15.4
2022-10-26T07:36:01.400Z,15.4
2022-10-26T07:37:01.964Z,15.4
2022-10-26T07:38:01.561Z,15.4
2022-10-26T07:39:01.136Z,15.5
2022-10-26T07:40:04.076Z,15.5
2022-10-26T07:41:01.268Z,15.6
2022-10-26T07:42:01.850Z,15.6
2022-10-26T07:43:01.436Z,15.7
2022-10-26T07:44:02.008Z,15.7
2022-10-26T07:45:01.603Z,15.7
2022-10-26T07:46:01.180Z,15.7
2022-10-26T07:47:01.764Z,15.8
2022-10-26T07:48:01.342Z,15.8
2022-10-26T07:49:01.936Z,15.8
2022-10-26T07:50:01.536Z,15.8
2022-10-26T07:51:02.930Z,16
2022-10-26T07:52:01.636Z,16
2022-10-26T07:53:01.209Z,15.9
2022-10-26T07:54:01.784Z,16
2022-10-26T07:55:01.385Z,15.9
2022-10-26T07:56:01.936Z,16
2022-10-26T07:57:01.594Z,16.1
2022-10-26T07:58:01.603Z,16.2
2022-10-26T07:59:01.492Z,16.2
2022-10-26T08:00:01.091Z,16.3
2022-10-26T08:01:01.744Z,16.4
2022-10-26T08:02:01.434Z,16.3
2022-10-26T08:03:01.890Z,16.3
2022-10-26T08:04:01.463Z,16.3
2022-10-26T08:05:01.074Z,16.5
2022-10-26T08:06:01.624Z,16.4
2022-10-26T08:07:01.214Z,16.5
2022-10-26T08:08:01.808Z,16.6
2022-10-26T08:09:01.383Z,16.6
2022-10-26T08:10:01.954Z,16.7
2022-10-26T08:11:01.543Z,16.6
2022-10-26T08:12:01.118Z,16.7
2022-10-26T08:13:01.684Z,16.6
2022-10-26T08:14:01.254Z,16.6
2022-10-26T08:15:01.823Z,16.5
2022-10-26T08:16:01.414Z,16.5
2022-10-26T08:17:01.981Z,16.4
2022-10-26T08:18:01.557Z,16.5
2022-10-26T08:19:01.136Z,16.5
2022-10-26T08:20:01.705Z,16.5
2022-10-26T08:21:05.092Z,16.6
2022-10-26T08:22:01.865Z,16.7
2022-10-26T08:23:01.453Z,16.7
2022-10-26T08:24:01.026Z,16.7
2022-10-26T08:25:01.600Z,16.8
2022-10-26T08:26:01.188Z,16.7
2022-10-26T08:27:01.755Z,16.7
2022-10-26T08:28:01.329Z,16.7
2022-10-26T08:29:01.905Z,16.7
2022-10-26T08:30:01.493Z,16.8
2022-10-26T08:31:01.081Z,16.9
2022-10-26T08:32:01.649Z,17
2022-10-26T08:33:01.221Z,16.9
2022-10-26T08:34:01.824Z,17
2022-10-26T08:35:01.415Z,17
2022-10-26T08:36:02.051Z,17
2022-10-26T08:37:01.691Z,17.1
2022-10-26T08:38:01.236Z,17.1
2022-10-26T08:39:01.814Z,17.2
2022-10-26T08:40:03.002Z,17.2
2022-10-26T08:41:01.817Z,17.2
2022-10-26T08:42:01.407Z,17.2
2022-10-26T08:43:01.983Z,17.2
2022-10-26T08:44:01.557Z,17.2
2022-10-26T08:45:01.129Z,17.3
2022-10-26T08:46:01.830Z,17.3
2022-10-26T08:47:01.377Z,17.3
2022-10-26T08:48:01.940Z,17.3
2022-10-26T08:49:01.520Z,17.4
2022-10-26T08:50:01.183Z,17.4
2022-10-26T08:51:01.761Z,17.3
2022-10-26T08:52:01.353Z,17.3
2022-10-26T08:53:01.945Z,17.3
2022-10-26T08:54:01.522Z,17.3
2022-10-26T08:55:01.096Z,17.4
2022-10-26T08:56:01.725Z,17.3
2022-10-26T08:57:01.332Z,17.2
2022-10-26T08:58:01.890Z,17.3
2022-10-26T08:59:01.465Z,17.3
2022-10-26T09:00:01.035Z,17.3
2022-10-26T09:01:01.674Z,17.3
2022-10-26T09:02:01.373Z,17.2
2022-10-26T09:03:01.850Z,17.3
2022-10-26T09:05:01.986Z,17.4
2022-10-26T09:06:01.691Z,17.3
2022-10-26T09:07:01.245Z,17.4
2022-10-26T09:08:01.849Z,17.4
2022-10-26T09:09:01.445Z,17.4
2022-10-26T09:10:02.005Z,17.3
2022-10-26T09:11:01.579Z,17.4
2022-10-26T09:12:01.166Z,17.3
2022-10-26T09:13:01.757Z,17.3
2022-10-26T09:14:01.328Z,17.2
2022-10-26T09:15:01.900Z,17.3
2022-10-26T09:16:01.474Z,17.3
2022-10-26T09:17:01.059Z,17.4
2022-10-26T09:18:01.653Z,17.3
2022-10-26T09:19:02.623Z,17.4
2022-10-26T09:20:01.702Z,17.5
2022-10-26T09:21:01.277Z,17.5
2022-10-26T09:22:01.864Z,17.6
2022-10-26T09:23:01.459Z,17.6
2022-10-26T09:24:01.026Z,17.5
2022-10-26T09:25:03.979Z,17.5
2022-10-26T09:26:01.134Z,17.6
2022-10-26T09:27:01.742Z,17.7
2022-10-26T09:28:01.360Z,17.7
2022-10-26T09:29:01.948Z,17.7
2022-10-26T09:30:01.520Z,17.8
2022-10-26T09:31:01.093Z,17.8
2022-10-26T09:32:01.663Z,17.8
2022-10-26T09:33:01.235Z,17.8
2022-10-26T09:34:01.822Z,17.8
2022-10-26T09:35:01.393Z,17.8
2022-10-26T09:36:01.968Z,17.8
2022-10-26T09:37:01.544Z,17.8
2022-10-26T09:38:01.119Z,17.7
2022-10-26T09:39:01.709Z,17.8
2022-10-26T09:40:01.281Z,17.9
2022-10-26T09:41:01.887Z,17.8
2022-10-26T09:42:01.462Z,17.8
2022-10-26T09:43:01.039Z,18
2022-10-26T09:44:01.628Z,17.9
2022-10-26T09:45:01.217Z,17.8
2022-10-26T09:46:01.787Z,17.9
2022-10-26T09:47:01.360Z,17.8
2022-10-26T09:48:03.836Z,17.8
2022-10-26T09:50:01.055Z,17.9
2022-10-26T09:51:03.476Z,18
2022-10-26T09:52:01.261Z,18.1
2022-10-26T09:53:01.872Z,18.1
2022-10-26T09:54:01.460Z,18.2
2022-10-26T09:55:01.031Z,18.2
2022-10-26T09:56:01.631Z,18.3
2022-10-26T09:57:01.238Z,18.3
2022-10-26T09:58:01.786Z,18.3
2022-10-26T09:59:01.355Z,18.2
2022-10-26T10:00:01.928Z,18.2
2022-10-26T10:01:01.563Z,18.3
2022-10-26T10:02:01.124Z,18.3
2022-10-26T10:03:01.676Z,18.3
2022-10-26T10:04:01.264Z,18.4
2022-10-26T10:05:01.837Z,18.4
2022-10-26T10:06:01.429Z,18.4
2022-10-26T10:07:01.995Z,18.4
2022-10-26T10:08:01.568Z,18.4
2022-10-26T10:09:01.174Z,18.4
2022-10-26T10:10:01.730Z,18.4
2022-10-26T10:11:01.326Z,18.5
2022-10-26T10:12:01.897Z,18.5
2022-10-26T10:13:01.498Z,18.4
2022-10-26T10:14:01.047Z,18.4
2022-10-26T10:15:01.622Z,18.3
2022-10-26T10:16:01.213Z,18.3
2022-10-26T10:17:01.787Z,18.2
2022-10-26T10:18:01.426Z,18.2
2022-10-26T10:19:01.991Z,18.2
2022-10-26T10:20:01.563Z,18.1
2022-10-26T10:21:01.134Z,18
2022-10-26T10:22:01.724Z,18
2022-10-26T10:23:01.314Z,18
2022-10-26T10:24:01.886Z,18
2022-10-26T10:25:01.462Z,17.9
2022-10-26T10:26:01.039Z,17.9
2022-10-26T10:27:01.612Z,18
2022-10-26T10:28:01.204Z,17.9
2022-10-26T10:29:01.810Z,18
2022-10-26T10:30:03.159Z,18.2
2022-10-26T10:31:02.041Z,18.3
2022-10-26T10:32:01.682Z,18.5
2022-10-26T10:33:01.222Z,18.8
2022-10-26T10:34:01.825Z,18.8
2022-10-26T10:35:01.398Z,18.6
2022-10-26T10:36:01.974Z,18.7
2022-10-26T10:37:01.549Z,18.8
2022-10-26T10:38:01.124Z,19
2022-10-26T10:39:01.715Z,19.1
2022-10-26T10:40:01.304Z,19
2022-10-26T10:41:01.872Z,19.1
2022-10-26T10:42:01.447Z,18.9
2022-10-26T10:43:02.021Z,18.8
2022-10-26T10:44:01.610Z,18.9
2022-10-26T10:45:01.208Z,18.8
2022-10-26T10:46:01.756Z,18.8
2022-10-26T10:47:01.329Z,18.9
2022-10-26T10:48:01.908Z,18.7
2022-10-26T10:49:01.506Z,18.8
2022-10-26T10:50:01.063Z,18.6
2022-10-26T10:51:01.638Z,18.7
2022-10-26T10:52:01.210Z,18.7
2022-10-26T10:53:01.786Z,18.7
2022-10-26T10:54:01.377Z,18.7
2022-10-26T10:55:01.958Z,18.7
2022-10-26T10:56:01.544Z,18.8
2022-10-26T10:57:01.117Z,18.9
2022-10-26T10:58:01.689Z,18.9
2022-10-26T10:59:01.263Z,19
2022-10-26T11:00:01.878Z,19
2022-10-26T11:01:01.475Z,19
2022-10-26T11:02:02.115Z,19
2022-10-26T11:03:01.733Z,19.1
2022-10-26T11:04:01.269Z,19.1
2022-10-26T11:05:01.857Z,19.1
2022-10-26T11:06:01.432Z,19.1
2022-10-26T11:07:02.005Z,19.1
2022-10-26T11:08:01.576Z,19.1
2022-10-26T11:09:01.148Z,19.3
2022-10-26T11:10:01.765Z,19.3
2022-10-26T11:11:01.358Z,19.3
2022-10-26T11:12:01.936Z,19.4
2022-10-26T11:13:01.514Z,19.4
2022-10-26T11:14:01.093Z,19.4
2022-10-26T11:15:01.683Z,19.3
2022-10-26T11:16:01.256Z,19.3
2022-10-26T11:17:01.852Z,19.3
2022-10-26T11:18:01.427Z,19.3
2022-10-26T11:19:01.999Z,19.3
2022-10-26T11:20:01.618Z,19.4
2022-10-26T11:21:01.198Z,19.5
2022-10-26T11:22:01.778Z,19.4
2022-10-26T11:23:01.427Z,19.3
2022-10-26T11:24:01.938Z,19.3
2022-10-26T11:25:01.526Z,19.4
2022-10-26T11:26:01.099Z,19.5
2022-10-26T11:27:01.688Z,19.3
2022-10-26T11:28:01.260Z,19.3
2022-10-26T11:29:01.832Z,19.3
2022-10-26T11:30:01.408Z,19.5
2022-10-26T11:31:01.986Z,19.4
2022-10-26T11:32:01.575Z,19.4
2022-10-26T11:33:01.182Z,19.2
2022-10-26T11:34:01.732Z,19.2
2022-10-26T11:35:01.312Z,19.2
2022-10-26T11:36:01.888Z,19.2
2022-10-26T11:37:01.476Z,19.2
2022-10-26T11:38:01.058Z,19.3
2022-10-26T11:39:05.493Z,19.4
2022-10-26T11:40:01.162Z,19.4
2022-10-26T11:41:01.732Z,19.6
2022-10-26T11:42:01.305Z,19.6
2022-10-26T11:43:01.888Z,19.4
2022-10-26T11:44:01.459Z,19.3
2022-10-26T11:45:02.031Z,19.3
2022-10-26T11:46:01.607Z,19.2
2022-10-26T11:47:01.182Z,19.2
2022-10-26T11:48:01.776Z,19.1
2022-10-26T11:49:01.457Z,19.1
2022-10-26T11:50:02.008Z,19.1
2022-10-26T11:51:01.578Z,19.1
2022-10-26T11:52:01.149Z,19.1
2022-10-26T11:53:01.736Z,19.1
2022-10-26T11:54:01.311Z,19.2
2022-10-26T11:55:01.885Z,19.4
2022-10-26T11:56:01.456Z,19.6
2022-10-26T11:57:02.027Z,19.6
2022-10-26T11:58:01.613Z,19.6
2022-10-26T12:00:01.749Z,19.5
2022-10-26T12:01:01.333Z,19.5
2022-10-26T12:02:01.893Z,19.6
2022-10-26T12:03:01.488Z,19.6
2022-10-26T12:04:01.056Z,19.6
2022-10-26T12:05:01.653Z,19.6
2022-10-26T12:06:01.225Z,19.6
2022-10-26T12:07:01.810Z,19.5
2022-10-26T12:08:01.382Z,19.4
2022-10-26T12:09:01.966Z,19.5
2022-10-26T12:10:01.572Z,19.5
2022-10-26T12:11:01.216Z,19.5
2022-10-26T12:12:01.734Z,19.5
2022-10-26T12:13:01.311Z,19.5
2022-10-26T12:14:01.899Z,19.5
2022-10-26T12:15:01.469Z,19.5
2022-10-26T12:16:03.834Z,19.6
2022-10-26T12:17:01.575Z,19.7
2022-10-26T12:18:01.148Z,19.7
2022-10-26T12:19:01.740Z,19.7
2022-10-26T12:20:01.314Z,19.8
2022-10-26T12:21:01.920Z,19.7
2022-10-26T12:22:01.493Z,19.8
2022-10-26T12:23:01.065Z,19.7
2022-10-26T12:24:01.713Z,19.8
2022-10-26T12:25:01.289Z,19.7
2022-10-26T12:26:01.883Z,19.7
2022-10-26T12:27:01.457Z,19.8
2022-10-26T12:28:02.031Z,19.7
2022-10-26T12:29:01.611Z,19.7
2022-10-26T12:30:01.185Z,19.7
2022-10-26T12:31:01.775Z,19.7
2022-10-26T12:32:01.352Z,19.7
2022-10-26T12:33:01.927Z,19.7
2022-10-26T12:34:01.505Z,19.6
2022-10-26T12:35:01.082Z,19.7
2022-10-26T12:36:01.759Z,19.7
2022-10-26T12:37:01.339Z,19.7
2022-10-26T12:38:01.905Z,19.8
2022-10-26T12:39:01.482Z,19.7
2022-10-26T12:40:01.073Z,19.7
2022-10-26T12:41:01.646Z,19.7
2022-10-26T12:42:01.220Z,19.7
2022-10-26T12:43:01.797Z,19.6
2022-10-26T12:44:02.018Z,19.7
2022-10-26T12:45:01.924Z,19.7
2022-10-26T12:46:01.503Z,19.7
2022-10-26T12:47:01.076Z,19.8
2022-10-26T12:48:06.957Z,19.9
2022-10-26T12:49:01.182Z,19.8
2022-10-26T12:50:01.770Z,19.9
2022-10-26T12:51:01.342Z,19.9
2022-10-26T12:53:01.523Z,19.8
2022-10-26T12:54:01.086Z,19.8
2022-10-26T12:55:01.662Z,19.9
2022-10-26T12:56:01.240Z,19.8
2022-10-26T12:57:01.830Z,19.9
2022-10-26T12:58:01.402Z,19.9
2022-10-26T12:59:04.625Z,20
2022-10-26T13:00:01.508Z,19.9
2022-10-26T13:01:01.098Z,19.9
2022-10-26T13:02:01.652Z,19.9
2022-10-26T13:03:01.243Z,20
2022-10-26T13:04:01.797Z,20.1
2022-10-26T13:05:01.370Z,20.2
2022-10-26T13:06:01.942Z,20.1
2022-10-26T13:07:01.516Z,20.1
2022-10-26T13:08:01.107Z,20.2
2022-10-26T13:09:02.249Z,20.2
2022-10-26T13:10:01.210Z,20.1
2022-10-26T13:11:01.801Z,20.1
2022-10-26T13:12:01.377Z,20.1
2022-10-26T13:13:01.963Z,20.1
2022-10-26T13:14:01.551Z,20
2022-10-26T13:15:01.111Z,20
2022-10-26T13:16:01.682Z,20
2022-10-26T13:17:01.251Z,20
2022-10-26T13:18:01.845Z,20.1
2022-10-26T13:19:01.416Z,20.1
2022-10-26T13:20:01.986Z,20
2022-10-26T13:21:01.558Z,20.1
2022-10-26T13:22:01.131Z,20.2
2022-10-26T13:24:01.279Z,20.1
2022-10-26T13:25:01.980Z,20
2022-10-26T13:26:01.517Z,20.1
2022-10-26T13:27:01.089Z,20.2
2022-10-26T13:28:01.680Z,20.2
2022-10-26T13:29:01.255Z,20.2
2022-10-26T13:30:01.830Z,20.1
2022-10-26T13:31:01.405Z,20.1